createdAt,value
2022-08-22T00:01:12.593Z,8.27
2022-08-22T00:02:42.776Z,6.32
2022-08-22T00:02:59.131Z,6.60
2022-08-22T00:03:00.571Z,6.50
2022-08-22T00:03:10.897Z,5.35
2022-08-22T00:03:45.573Z,6.70
2022-08-22T00:06:35.961Z,6.25
2022-08-22T00:09:35.465Z,5.38
2022-08-22T00:12:05.341Z,6.22
2022-08-22T00:14:41.521Z,5.32
2022-08-22T00:17:18.536Z,5.97
2022-08-22T00:19:53.938Z,5.90
2022-08-22T00:22:30.127Z,6.22
2022-08-22T00:25:32.550Z,6.82
2022-08-22T00:28:11.034Z,6.82
2022-08-22T00:31:07.484Z,4.72
2022-08-22T00:33:47.719Z,5.60
2022-08-22T00:36:36.117Z,8.00
2022-08-22T00:39:07.997Z,5.03
2022-08-22T00:41:59.848Z,7.20
2022-08-22T00:44:43.145Z,7.30
2022-08-22T00:47:49.864Z,5.90
2022-08-22T00:50:26.220Z,6.15
2022-08-22T00:53:30.700Z,5.45
2022-08-22T00:56:34.167Z,5.72
2022-08-22T00:59:23.256Z,5.22
2022-08-22T01:02:05.027Z,4.47
2022-08-22T01:05:03.934Z,5.75
2022-08-22T01:07:44.910Z,4.80
2022-08-22T01:10:18.886Z,5.60
2022-08-22T01:13:10.803Z,4.97
2022-08-22T01:15:37.909Z,4.60
2022-08-22T01:18:40.013Z,5.10
2022-08-22T01:21:58.045Z,4.80
2022-08-22T01:25:05.690Z,3.67
2022-08-22T01:27:42.179Z,6.05
2022-08-22T01:30:18.627Z,4.53
2022-08-22T01:33:20.738Z,4.15
2022-08-22T01:36:09.332Z,4.40
2022-08-22T01:38:52.125Z,3.78
2022-08-22T01:41:34.616Z,4.25
2022-08-22T01:44:16.527Z,4.15
2022-08-22T01:47:03.644Z,4.68
2022-08-22T01:49:44.276Z,4.38
2022-08-22T01:52:29.399Z,3.58
2022-08-22T01:55:01.178Z,3.65
2022-08-22T01:57:28.045Z,3.38
2022-08-22T01:59:57.877Z,4.32
2022-08-22T02:02:39.601Z,4.80
2022-08-22T02:05:31.773Z,3.53
2022-08-22T02:08:26.629Z,3.33
2022-08-22T02:11:03.353Z,3.83
2022-08-22T02:13:30.060Z,3.83
2022-08-22T02:16:25.200Z,4.07
2022-08-22T02:19:10.184Z,3.92
2022-08-22T02:21:42.981Z,3.95
2022-08-22T02:24:41.289Z,5.47
2022-08-22T02:27:20.087Z,4.93
2022-08-22T02:29:50.072Z,4.07
2022-08-22T02:32:21.503Z,5.88
2022-08-22T02:34:48.603Z,4.93
2022-08-22T02:37:18.324Z,5.07
2022-08-22T02:40:02.963Z,7.13
2022-08-22T02:42:51.619Z,4.45
2022-08-22T02:45:30.199Z,5.50
2022-08-22T02:48:00.275Z,4.45
2022-08-22T02:50:56.998Z,4.43
2022-08-22T02:53:36.634Z,4.50
2022-08-22T02:56:06.256Z,6.57
2022-08-22T02:58:42.030Z,4.03
2022-08-22T03:01:22.265Z,5.38
2022-08-22T03:03:49.372Z,4.65
2022-08-22T03:07:06.091Z,4.25
2022-08-22T03:09:37.884Z,4.03
2022-08-22T03:12:33.415Z,5.78
2022-08-22T03:15:09.979Z,3.92
2022-08-22T03:18:16.466Z,4.38
2022-08-22T03:20:47.357Z,5.05
2022-08-22T03:23:21.102Z,4.93
2022-08-22T03:25:59.805Z,3.85
2022-08-22T03:29:00.216Z,2.75
2022-08-22T03:31:30.642Z,2.60
2022-08-22T03:34:16.267Z,2.70
2022-08-22T03:36:56.705Z,3.20
2022-08-22T03:39:37.044Z,3.13
2022-08-22T03:42:31.149Z,4.10
2022-08-22T03:45:21.880Z,3.55
2022-08-22T03:48:10.551Z,3.28
2022-08-22T03:50:56.197Z,3.85
2022-08-22T03:53:49.168Z,3.38
2022-08-22T03:56:37.793Z,4.05
2022-08-22T03:59:40.701Z,5.40
2022-08-22T04:02:43.594Z,3.70
2022-08-22T04:05:34.127Z,4.05
2022-08-22T04:08:22.031Z,3.38
2022-08-22T04:10:55.197Z,2.83
2022-08-22T04:13:37.155Z,3.63
2022-08-22T04:16:14.352Z,2.90
2022-08-22T04:19:23.419Z,2.78
2022-08-22T04:22:02.199Z,3.20
2022-08-22T04:24:52.043Z,3.22
2022-08-22T04:27:47.308Z,2.80
2022-08-22T04:30:20.490Z,3.53
2022-08-22T04:33:06.586Z,5.65
2022-08-22T04:35:36.413Z,2.75
2022-08-22T04:38:47.724Z,2.88
2022-08-22T04:41:24.850Z,3.15
2022-08-22T04:44:09.009Z,3.72
2022-08-22T04:46:56.907Z,3.92
2022-08-22T04:49:29.991Z,3.10
2022-08-22T04:55:15.943Z,3.70
2022-08-22T05:01:20.796Z,4.22
2022-08-22T05:03:51.097Z,8.27
2022-08-22T05:06:19.127Z,5.15
2022-08-22T05:08:46.439Z,2.85
2022-08-22T05:11:22.297Z,5.57
2022-08-22T05:14:01.708Z,4.38
2022-08-22T05:16:35.109Z,5.53
2022-08-22T05:19:09.637Z,4.68
2022-08-22T05:21:38.842Z,6.13
2022-08-22T05:24:21.343Z,3.50
2022-08-22T05:26:50.586Z,4.40
2022-08-22T05:29:19.663Z,3.13
2022-08-22T05:31:55.628Z,3.13
2022-08-22T05:34:24.263Z,2.95
2022-08-22T05:36:56.867Z,3.42
2022-08-22T05:39:25.824Z,3.92
2022-08-22T05:41:56.109Z,3.22
2022-08-22T05:44:27.522Z,3.15
2022-08-22T05:47:02.975Z,3.75
2022-08-22T05:49:36.844Z,3.35
2022-08-22T05:52:18.623Z,3.22
2022-08-22T05:55:05.833Z,2.97
2022-08-22T05:57:38.065Z,3.70
2022-08-22T06:00:17.304Z,3.50
2022-08-22T06:03:22.579Z,3.47
2022-08-22T06:05:51.969Z,5.40
2022-08-22T06:08:27.832Z,3.55
2022-08-22T06:10:56.492Z,3.15
2022-08-22T06:13:32.517Z,3.50
2022-08-22T06:16:28.635Z,3.70
2022-08-22T06:18:55.437Z,5.38
2022-08-22T06:21:25.488Z,4.82
2022-08-22T06:23:59.990Z,4.25
2022-08-22T06:26:31.101Z,4.53
2022-08-22T06:28:59.310Z,3.42
2022-08-22T06:31:45.542Z,4.03
2022-08-22T06:34:31.195Z,6.45
2022-08-22T06:36:57.981Z,4.18
2022-08-22T06:39:31.142Z,4.28
2022-08-22T06:44:38.453Z,3.75
2022-08-22T06:47:18.352Z,4.82
2022-08-22T06:49:45.730Z,3.63
2022-08-22T06:52:21.308Z,3.80
2022-08-22T06:54:48.982Z,4.72
2022-08-22T06:57:45.240Z,5.03
2022-08-22T07:00:16.554Z,4.40
2022-08-22T07:02:55.135Z,4.72
2022-08-22T07:05:37.906Z,5.40
2022-08-22T07:08:13.784Z,6.13
2022-08-22T07:10:44.765Z,5.00
2022-08-22T07:13:18.979Z,5.03
2022-08-22T07:15:53.708Z,4.68
2022-08-22T07:18:25.641Z,4.70
2022-08-22T07:20:57.188Z,4.53
2022-08-22T07:23:34.037Z,4.70
2022-08-22T07:26:31.826Z,4.57
2022-08-22T07:29:12.009Z,3.97
2022-08-22T07:31:51.705Z,3.90
2022-08-22T07:34:46.063Z,3.50
2022-08-22T07:37:24.222Z,3.85
2022-08-22T07:40:15.349Z,3.00
2022-08-22T07:43:00.271Z,2.85
2022-08-22T07:45:58.132Z,3.03
2022-08-22T07:48:28.016Z,2.72
2022-08-22T07:51:03.156Z,2.42
2022-08-22T07:53:38.028Z,2.70
2022-08-22T07:56:05.707Z,5.15
2022-08-22T07:58:34.013Z,3.38
2022-08-22T08:01:01.126Z,2.38
2022-08-22T08:03:28.923Z,2.80
2022-08-22T08:05:55.785Z,3.67
2022-08-22T08:08:34.607Z,2.58
2022-08-22T08:11:01.872Z,2.97
2022-08-22T08:13:33.958Z,2.38
2022-08-22T08:16:01.514Z,2.70
2022-08-22T08:18:28.739Z,2.70
2022-08-22T08:21:02.148Z,2.65
2022-08-22T08:23:31.938Z,3.42
2022-08-22T08:26:17.279Z,2.63
2022-08-22T08:28:52.678Z,2.33
2022-08-22T08:31:45.037Z,2.50
2022-08-22T08:34:24.428Z,1.90
2022-08-22T08:37:06.531Z,2.05
2022-08-22T08:39:37.506Z,2.35
2022-08-22T08:42:58.421Z,1.98
2022-08-22T08:46:20.810Z,1.80
2022-08-22T08:49:01.192Z,2.28
2022-08-22T08:51:52.329Z,2.10
2022-08-22T08:54:37.409Z,2.38
2022-08-22T08:57:36.500Z,2.10
2022-08-22T09:00:27.214Z,4.40
2022-08-22T09:03:12.147Z,2.08
2022-08-22T09:06:22.003Z,2.30
2022-08-22T09:08:57.692Z,2.13
2022-08-22T09:11:54.410Z,1.85
2022-08-22T09:14:26.938Z,2.28
2022-08-22T09:17:45.575Z,2.30
2022-08-22T09:20:38.186Z,2.28
2022-08-22T09:23:18.402Z,2.60
2022-08-22T09:25:53.613Z,2.30
2022-08-22T09:28:41.479Z,2.15
2022-08-22T09:31:21.944Z,2.15
2022-08-22T09:34:24.232Z,1.83
2022-08-22T09:37:19.979Z,1.20
2022-08-22T09:40:01.028Z,1.65
2022-08-22T09:42:39.535Z,1.23
2022-08-22T09:45:17.866Z,1.20
2022-08-22T09:48:06.388Z,1.65
2022-08-22T09:51:01.765Z,3.38
2022-08-22T09:53:50.348Z,2.17
2022-08-22T09:56:30.803Z,1.83
2022-08-22T09:59:12.111Z,1.48
2022-08-22T10:02:15.926Z,1.48
2022-08-22T10:05:40.657Z,1.30
2022-08-22T10:08:20.294Z,1.65
2022-08-22T10:11:39.034Z,1.10
2022-08-22T10:14:10.148Z,1.35
2022-08-22T10:16:42.931Z,2.03
2022-08-22T10:19:22.530Z,1.30
2022-08-22T10:22:11.164Z,2.03
2022-08-22T10:24:44.291Z,1.30
2022-08-22T10:27:19.771Z,1.40
2022-08-22T10:29:56.093Z,2.05
2022-08-22T10:32:47.622Z,2.63
2022-08-22T10:35:28.108Z,1.30
2022-08-22T10:38:16.951Z,0.98
2022-08-22T10:41:09.290Z,1.00
2022-08-22T10:44:00.972Z,1.27
2022-08-22T10:46:47.213Z,0.90
2022-08-22T10:49:53.990Z,0.85
2022-08-22T10:52:31.542Z,1.23
2022-08-22T10:55:10.041Z,1.73
2022-08-22T10:57:55.907Z,1.45
2022-08-22T11:00:50.109Z,0.90
2022-08-22T11:03:40.396Z,0.70
2022-08-22T11:06:13.970Z,2.20
2022-08-22T11:08:59.938Z,0.75
2022-08-22T11:11:38.693Z,0.70
2022-08-22T11:14:12.333Z,1.42
2022-08-22T11:17:02.773Z,0.80
2022-08-22T11:20:16.889Z,1.02
2022-08-22T11:23:12.917Z,1.00
2022-08-22T11:25:58.145Z,3.00
2022-08-22T11:28:40.122Z,0.60
2022-08-22T11:34:49.314Z,2.00
2022-08-22T11:38:00.035Z,1.05
2022-08-22T11:40:47.191Z,0.60
2022-08-22T11:43:37.910Z,0.50
2022-08-22T11:46:36.499Z,1.35
2022-08-22T11:55:23.854Z,1.05
2022-08-22T11:58:04.451Z,1.00
2022-08-22T12:00:46.997Z,0.60
2022-08-22T12:03:27.498Z,1.23
2022-08-22T12:06:08.968Z,0.80
2022-08-22T12:08:39.299Z,1.10
2022-08-22T12:11:19.037Z,0.93
2022-08-22T12:14:19.926Z,1.15
2022-08-22T12:17:11.243Z,1.65
2022-08-22T12:20:15.011Z,1.38
2022-08-22T12:23:12.074Z,0.90
2022-08-22T12:25:54.252Z,0.80
2022-08-22T12:28:54.884Z,1.80
2022-08-22T12:31:32.471Z,0.70
2022-08-22T12:34:02.660Z,2.28
2022-08-22T12:37:16.420Z,0.77
2022-08-22T12:39:53.866Z,1.90
2022-08-22T12:42:49.522Z,1.92
2022-08-22T12:45:36.183Z,0.68
2022-08-22T12:48:32.548Z,0.82
2022-08-22T12:51:24.866Z,0.90
2022-08-22T12:54:14.475Z,0.68
2022-08-22T12:57:23.781Z,0.60
2022-08-22T12:59:58.240Z,0.85
2022-08-22T13:02:31.608Z,1.30
2022-08-22T13:05:00.896Z,1.08
2022-08-22T13:07:30.506Z,1.02
2022-08-22T13:10:33.088Z,0.95
2022-08-22T13:12:59.940Z,0.70
2022-08-22T13:15:36.795Z,1.13
2022-08-22T13:18:29.686Z,1.00
2022-08-22T13:20:58.654Z,0.70
2022-08-22T13:23:42.056Z,1.23
2022-08-22T13:26:33.731Z,0.70
2022-08-22T13:29:24.542Z,0.98
2022-08-22T13:31:53.618Z,1.17
2022-08-22T13:34:40.008Z,1.15
2022-08-22T13:37:07.724Z,0.90
2022-08-22T13:39:38.894Z,0.60
2022-08-22T13:42:07.619Z,0.70
2022-08-22T13:44:44.125Z,1.40
2022-08-22T13:47:18.612Z,1.00
2022-08-22T13:49:54.420Z,1.30
2022-08-22T13:52:38.140Z,1.63
2022-08-22T13:55:22.551Z,1.48
2022-08-22T13:58:01.071Z,1.50
2022-08-22T14:00:57.526Z,2.03
2022-08-22T14:03:48.572Z,3.00
2022-08-22T14:06:36.857Z,2.40
2022-08-22T14:09:12.794Z,2.58
2022-08-22T14:11:45.935Z,2.03
2022-08-22T14:14:12.821Z,1.85
2022-08-22T14:16:48.831Z,1.92
2022-08-22T14:19:31.023Z,2.22
2022-08-22T14:22:10.121Z,3.38
2022-08-22T14:24:48.995Z,1.67
2022-08-22T14:27:39.675Z,2.38
2022-08-22T14:30:28.632Z,1.50
2022-08-22T14:33:34.198Z,1.63
2022-08-22T14:36:11.606Z,2.40
2022-08-22T14:38:46.154Z,2.58
2022-08-22T14:41:26.616Z,2.08
2022-08-22T14:44:27.513Z,1.90
2022-08-22T14:47:32.321Z,1.75
2022-08-22T14:49:57.496Z,1.52
2022-08-22T14:52:34.832Z,1.70
2022-08-22T14:55:08.654Z,1.40
2022-08-22T14:57:36.554Z,1.98
2022-08-22T15:00:14.051Z,1.92
2022-08-22T15:02:41.252Z,1.50
2022-08-22T15:05:18.566Z,1.98
2022-08-22T15:07:55.227Z,1.35
2022-08-22T15:10:31.867Z,3.55
2022-08-22T15:13:01.768Z,2.70
2022-08-22T15:15:41.162Z,1.90
2022-08-22T15:18:28.445Z,4.43
2022-08-22T15:21:24.276Z,2.28
2022-08-22T15:23:53.589Z,1.65
2022-08-22T15:26:24.254Z,1.85
2022-08-22T15:29:22.081Z,3.45
2022-08-22T15:31:51.262Z,2.78
2022-08-22T15:34:45.995Z,2.55
2022-08-22T15:37:18.995Z,1.63
2022-08-22T15:40:03.081Z,2.20
2022-08-22T15:42:46.964Z,3.55
2022-08-22T15:45:34.705Z,2.60
2022-08-22T15:48:05.107Z,1.50
2022-08-22T15:50:41.986Z,1.70
2022-08-22T15:53:14.802Z,2.85
2022-08-22T15:56:04.714Z,2.45
2022-08-22T15:58:32.301Z,2.80
2022-08-22T16:01:04.861Z,1.75
2022-08-22T16:04:07.955Z,1.40
2022-08-22T16:06:50.699Z,1.33
2022-08-22T16:09:42.718Z,3.63
2022-08-22T16:12:23.902Z,1.70
2022-08-22T16:14:50.951Z,1.50
2022-08-22T16:17:29.904Z,3.03
2022-08-22T16:20:19.935Z,1.67
2022-08-22T16:22:59.021Z,1.85
2022-08-22T16:25:44.505Z,1.00
2022-08-22T16:28:54.236Z,1.30
2022-08-22T16:31:19.308Z,2.30
2022-08-22T16:33:46.104Z,2.00
2022-08-22T16:36:15.812Z,1.75
2022-08-22T16:38:44.600Z,1.50
2022-08-22T16:41:38.021Z,2.60
2022-08-22T16:44:34.399Z,2.92
2022-08-22T16:47:20.800Z,2.45
2022-08-22T16:49:50.593Z,1.65
2022-08-22T16:52:26.739Z,2.63
2022-08-22T16:55:07.617Z,2.95
2022-08-22T16:58:06.096Z,2.72
2022-08-22T17:00:34.426Z,3.58
2022-08-22T17:03:11.336Z,1.73
2022-08-22T17:06:15.791Z,2.75
2022-08-22T17:08:58.635Z,2.03
2022-08-22T17:11:26.453Z,2.17
2022-08-22T17:14:20.567Z,2.35
2022-08-22T17:17:12.647Z,1.90
2022-08-22T17:19:47.205Z,2.15
2022-08-22T17:22:58.360Z,1.90
2022-08-22T17:26:01.028Z,1.60
2022-08-22T17:28:42.089Z,1.50
2022-08-22T17:31:59.845Z,1.33
2022-08-22T17:34:55.952Z,2.65
2022-08-22T17:37:45.065Z,1.90
2022-08-22T17:40:36.486Z,2.13
2022-08-22T17:43:13.029Z,1.85
2022-08-22T17:45:52.728Z,1.80
2022-08-22T17:48:22.286Z,1.70
2022-08-22T17:50:57.781Z,1.67
2022-08-22T17:53:37.510Z,1.75
2022-08-22T17:56:12.432Z,1.85
2022-08-22T17:58:45.515Z,1.63
2022-08-22T18:02:10.009Z,3.95
2022-08-22T18:04:54.137Z,1.70
2022-08-22T18:07:54.072Z,1.90
2022-08-22T18:10:45.812Z,3.45
2022-08-22T18:13:14.581Z,1.80
2022-08-22T18:15:50.241Z,1.80
2022-08-22T18:18:38.613Z,1.90
2022-08-22T18:21:23.405Z,2.00
2022-08-22T18:24:00.776Z,2.28
2022-08-22T18:26:42.133Z,2.00
2022-08-22T18:29:20.797Z,2.70
2022-08-22T18:31:53.924Z,2.08
2022-08-22T18:37:12.392Z,2.85
2022-08-22T18:40:20.602Z,2.50
2022-08-22T18:43:01.476Z,2.15
2022-08-22T18:45:50.617Z,5.15
2022-08-22T18:48:34.935Z,5.03
2022-08-22T18:51:24.864Z,2.67
2022-08-22T18:54:04.408Z,2.38
2022-08-22T18:56:54.729Z,3.38
2022-08-22T18:59:29.091Z,2.45
2022-08-22T19:02:34.037Z,2.65
2022-08-22T19:05:05.872Z,4.20
2022-08-22T19:07:53.019Z,3.80
2022-08-22T19:10:53.967Z,2.22
2022-08-22T19:13:39.148Z,5.90
2022-08-22T19:16:15.840Z,1.90
2022-08-22T19:18:53.163Z,2.50
2022-08-22T19:21:51.435Z,3.28
2022-08-22T19:24:27.495Z,2.20
2022-08-22T19:27:19.701Z,2.67
2022-08-22T19:29:50.024Z,4.13
2022-08-22T19:32:45.051Z,2.25
2022-08-22T19:35:22.002Z,2.53
2022-08-22T19:38:02.592Z,1.92
2022-08-22T19:40:50.142Z,2.30
2022-08-22T19:43:40.471Z,2.40
2022-08-22T19:46:10.098Z,2.67
2022-08-22T19:48:47.699Z,3.00
2022-08-22T19:51:20.944Z,2.45
2022-08-22T19:53:56.187Z,2.20
2022-08-22T19:56:47.610Z,4.22
2022-08-22T19:59:40.140Z,2.95
2022-08-22T20:02:38.979Z,4.13
2022-08-22T20:05:35.102Z,3.30
2022-08-22T20:08:20.779Z,2.83
2022-08-22T20:11:04.195Z,2.35
2022-08-22T20:13:32.977Z,5.18
2022-08-22T20:16:02.208Z,2.92
2022-08-22T20:19:05.063Z,2.65
2022-08-22T20:21:42.177Z,3.15
2022-08-22T20:24:25.357Z,2.42
2022-08-22T20:27:12.773Z,2.45
2022-08-22T20:29:44.065Z,3.58
2022-08-22T20:32:11.227Z,2.67
2022-08-22T20:34:39.433Z,2.83
2022-08-22T20:37:27.024Z,3.08
2022-08-22T20:40:21.989Z,2.65
2022-08-22T20:43:35.067Z,3.37
2022-08-22T20:46:29.152Z,2.60
2022-08-22T20:49:06.454Z,2.90
2022-08-22T20:51:33.904Z,2.38
2022-08-22T20:54:09.960Z,4.18
2022-08-22T20:56:53.114Z,2.42
2022-08-22T20:59:35.942Z,3.78
2022-08-22T21:02:20.677Z,2.90
2022-08-22T21:05:16.933Z,3.08
2022-08-22T21:08:11.009Z,3.10
2022-08-22T21:10:57.315Z,3.20
2022-08-22T21:13:35.880Z,3.10
2022-08-22T21:16:14.251Z,3.50
2022-08-22T21:18:52.150Z,3.05
2022-08-22T21:21:26.685Z,2.80
2022-08-22T21:24:00.820Z,3.20
2022-08-22T21:26:36.755Z,4.03
2022-08-22T21:29:33.853Z,2.80
2022-08-22T21:32:09.644Z,3.45
2022-08-22T21:34:40.982Z,3.45
2022-08-22T21:37:09.337Z,3.17
2022-08-22T21:39:37.996Z,3.83
2022-08-22T21:42:09.511Z,3.97
2022-08-22T21:44:38.321Z,4.43
2022-08-22T21:47:14.312Z,3.70
2022-08-22T21:50:01.871Z,3.40
2022-08-22T21:52:29.467Z,4.05
2022-08-22T21:55:16.264Z,3.67
2022-08-22T21:57:43.288Z,3.22
2022-08-22T22:00:52.127Z,4.00
2022-08-22T22:03:21.223Z,3.55
2022-08-22T22:05:50.287Z,3.85
2022-08-22T22:08:17.124Z,3.45
2022-08-22T22:10:44.747Z,3.60
2022-08-22T22:13:11.683Z,5.32
2022-08-22T22:15:46.125Z,3.22
2022-08-22T22:18:13.938Z,3.47
2022-08-22T22:20:41.079Z,2.97
2022-08-22T22:23:08.140Z,3.28
2022-08-22T22:25:41.258Z,3.83
2022-08-22T22:28:14.733Z,4.07
2022-08-22T22:30:41.794Z,3.30
2022-08-22T22:33:08.613Z,3.33
2022-08-22T22:35:36.762Z,3.45
2022-08-22T22:38:03.559Z,3.30
2022-08-22T22:40:30.857Z,4.55
2022-08-22T22:42:57.714Z,3.70
2022-08-22T22:45:24.453Z,3.80
2022-08-22T22:47:51.390Z,3.83
2022-08-22T22:50:18.278Z,6.38
2022-08-22T22:52:45.297Z,4.70
2022-08-22T22:55:12.807Z,3.95
2022-08-22T22:57:58.928Z,3.67
2022-08-22T23:00:31.086Z,3.58
2022-08-22T23:02:59.791Z,4.10
2022-08-22T23:05:26.732Z,3.80
2022-08-22T23:07:53.477Z,4.03
2022-08-22T23:10:22.252Z,3.95
2022-08-22T23:12:49.148Z,4.22
2022-08-22T23:15:16.724Z,4.53
2022-08-22T23:17:43.787Z,4.10
2022-08-22T23:20:10.809Z,3.83
2022-08-22T23:22:37.573Z,4.60
2022-08-22T23:25:05.123Z,4.10
2022-08-22T23:27:32.196Z,4.10
2022-08-22T23:29:59.631Z,3.97
2022-08-22T23:32:51.871Z,4.25
2022-08-22T23:35:18.726Z,5.05
2022-08-22T23:37:45.589Z,4.68
2022-08-22T23:40:12.638Z,3.63
2022-08-22T23:42:39.467Z,3.33
2022-08-22T23:45:06.619Z,3.50
2022-08-22T23:47:33.360Z,3.90
2022-08-22T23:50:05.722Z,4.13
2022-08-22T23:54:59.861Z,3.30
2022-08-22T23:57:27.650Z,3.92
2022-08-22T23:59:57.475Z,3.15
